Time;durP1;ratioP1;P1;durP2;ratioP2;P2;SDS_P1;SDS_P2;PMS_P1;PMS_P2;Temp;Humidity;BMP_temperature;BMP_pressure;BME280_temperature;BME280_humidity;BME280_pressure;Samples;Min_cycle;Max_cycle;Signal;HPM_P1;HPM_P2
2024/01/30 00:00:05;;;;;;;3.13;1.63;;;17.10;44.80;;;;;;5022925;28;45345;-61
2024/01/30 00:02:33;;;;;;;5.43;1.65;;;17.10;44.80;;;;;;5023153;28;45399;-61
2024/01/30 00:04:59;;;;;;;1.95;1.63;;;17.10;44.80;;;;;;5006681;28;45425;-61
2024/01/30 00:07:26;;;;;;;2.85;1.50;;;17.10;44.80;;;;;;5003050;27;46735;-61
2024/01/30 00:09:54;;;;;;;1.42;1.33;;;17.00;44.80;;;;;;5002694;28;45455;-62
2024/01/30 00:12:21;;;;;;;1.77;1.40;;;17.00;44.80;;;;;;5003354;27;45604;-61
2024/01/30 00:14:48;;;;;;;3.30;1.42;;;17.00;44.80;;;;;;5003268;27;45485;-62
2024/01/30 00:17:15;;;;;;;1.65;1.48;;;17.00;44.80;;;;;;5003032;27;45498;-62
2024/01/30 00:19:42;;;;;;;2.83;1.40;;;17.00;44.80;;;;;;5002955;27;45318;-61
2024/01/30 00:22:08;;;;;;;4.15;1.63;;;17.00;44.90;;;;;;5003187;27;45305;-61
2024/01/30 00:24:35;;;;;;;2.55;1.70;;;16.90;45.40;;;;;;5003229;27;45309;-61
2024/01/30 00:27:04;;;;;;;1.77;1.30;;;16.90;44.90;;;;;;5002851;27;46744;-62
2024/01/30 00:29:33;;;;;;;1.33;1.17;;;16.90;44.90;;;;;;5002723;28;45334;-61
2024/01/30 00:32:00;;;;;;;1.88;1.42;;;16.90;45.00;;;;;;5003074;27;45264;-60
2024/01/30 00:34:27;;;;;;;2.10;1.20;;;16.90;45.00;;;;;;5003246;27;45498;-62
2024/01/30 00:36:53;;;;;;;1.60;1.50;;;16.90;44.90;;;;;;5002747;27;45432;-61
2024/01/30 00:39:20;;;;;;;2.33;1.50;;;16.80;44.90;;;;;;5002773;27;45377;-61
2024/01/30 00:41:47;;;;;;;3.95;1.40;;;16.80;44.90;;;;;;5002898;27;45427;-62
2024/01/30 00:44:15;;;;;;;1.65;1.17;;;16.80;45.00;;;;;;5002977;27;45513;-61
2024/01/30 00:46:42;;;;;;;2.15;1.40;;;16.80;44.90;;;;;;5002609;27;46329;-61
2024/01/30 00:49:09;;;;;;;2.05;1.40;;;16.80;45.00;;;;;;5002407;28;45458;-61
2024/01/30 00:51:36;;;;;;;1.60;1.20;;;16.70;45.00;;;;;;5002532;27;45332;-61
2024/01/30 00:54:03;;;;;;;1.15;1.02;;;16.70;45.00;;;;;;5009284;27;45610;-61
2024/01/30 00:56:30;;;;;;;1.50;1.08;;;16.70;44.90;;;;;;5022146;28;46564;-61
2024/01/30 00:58:57;;;;;;;1.58;1.10;;;16.70;45.00;;;;;;5022258;27;45497;-61
2024/01/30 01:01:25;;;;;;;2.33;1.20;;;16.70;45.00;;;;;;5022243;28;45452;-63
2024/01/30 01:03:52;;;;;;;2.15;1.30;;;16.70;45.00;;;;;;5016462;28;45401;-61
2024/01/30 01:06:19;;;;;;;1.85;1.10;;;16.60;45.30;;;;;;5002158;27;45469;-61
2024/01/30 01:08:46;;;;;;;1.10;1.10;;;16.60;44.90;;;;;;5002047;27;45331;-60
2024/01/30 01:11:13;;;;;;;1.30;1.20;;;16.60;44.90;;;;;;5002474;27;45459;-61
2024/01/30 01:13:40;;;;;;;1.42;1.30;;;16.60;45.00;;;;;;5002437;28;45339;-61
2024/01/30 01:16:07;;;;;;;1.67;1.10;;;16.60;45.60;;;;;;5003194;27;46376;-61
2024/01/30 01:18:35;;;;;;;1.75;1.55;;;16.50;45.00;;;;;;5005304;28;45264;-61
2024/01/30 01:21:02;;;;;;;1.23;1.10;;;16.50;45.00;;;;;;5005186;28;45329;-61
2024/01/30 01:23:29;;;;;;;1.70;1.17;;;16.50;45.00;;;;;;5005459;27;45437;-61
2024/01/30 01:25:56;;;;;;;1.33;0.93;;;16.50;45.00;;;;;;5005059;27;46398;-61
2024/01/30 01:28:22;;;;;;;0.90;0.90;;;16.50;45.10;;;;;;5004945;27;45274;-61
2024/01/30 01:30:49;;;;;;;1.77;1.40;;;16.50;45.10;;;;;;5004964;27;45287;-61
2024/01/30 01:33:16;;;;;;;2.25;1.33;;;16.50;45.10;;;;;;5005266;28;45391;-61
2024/01/30 01:35:44;;;;;;;1.35;1.25;;;16.40;45.00;;;;;;5004806;27;45464;-61
2024/01/30 01:38:11;;;;;;;1.42;1.30;;;16.50;45.10;;;;;;5005100;27;45441;-61
2024/01/30 01:40:39;;;;;;;2.15;1.30;;;16.40;45.10;;;;;;5004894;27;45291;-62
2024/01/30 01:43:07;;;;;;;1.40;1.20;;;16.40;45.10;;;;;;5005161;28;45403;-61
2024/01/30 01:45:33;;;;;;;1.27;1.17;;;16.40;45.10;;;;;;5004647;28;46763;-60
2024/01/30 01:48:00;;;;;;;1.70;1.60;;;16.40;45.10;;;;;;5004777;28;45406;-61
2024/01/30 01:50:27;;;;;;;1.48;1.38;;;16.30;45.10;;;;;;5004734;28;45465;-60
2024/01/30 01:52:56;;;;;;;1.15;0.95;;;16.40;45.10;;;;;;5005050;27;45562;-61
2024/01/30 01:55:24;;;;;;;1.02;1.00;;;16.30;45.20;;;;;;5022067;28;45512;-60
2024/01/30 01:57:51;;;;;;;1.77;1.17;;;16.30;45.20;;;;;;5024482;27;45435;-61
2024/01/30 02:00:19;;;;;;;1.52;1.00;;;16.30;45.20;;;;;;5024272;28;45517;-60
2024/01/30 02:02:46;;;;;;;1.65;1.05;;;16.30;45.20;;;;;;5024947;28;45283;-61
2024/01/30 02:05:13;;;;;;;1.30;1.20;;;16.30;45.30;;;;;;5007463;28;45263;-61
2024/01/30 02:07:40;;;;;;;1.13;1.02;;;16.20;45.20;;;;;;5004591;27;45315;-61
2024/01/30 02:10:08;;;;;;;1.40;1.30;;;16.20;45.20;;;;;;5004525;27;45304;-61
2024/01/30 02:12:35;;;;;;;1.30;1.02;;;16.20;45.20;;;;;;5004747;28;45415;-61
2024/01/30 02:15:02;;;;;;;1.20;1.10;;;16.20;45.30;;;;;;5004220;28;45609;-61
2024/01/30 02:17:29;;;;;;;1.05;1.00;;;16.20;45.30;;;;;;5004415;27;45490;-61
2024/01/30 02:19:56;;;;;;;1.38;1.00;;;16.20;45.20;;;;;;5004299;28;45389;-62
2024/01/30 02:22:24;;;;;;;1.38;1.25;;;16.20;45.30;;;;;;5004825;27;45437;-61
2024/01/30 02:24:51;;;;;;;1.23;1.08;;;16.20;45.30;;;;;;5004339;28;47320;-62
2024/01/30 02:27:17;;;;;;;1.27;1.00;;;16.10;45.30;;;;;;5003325;27;45306;-62
2024/01/30 02:29:44;;;;;;;1.15;1.05;;;16.10;45.30;;;;;;5004480;27;45332;-65
2024/01/30 02:32:11;;;;;;;1.27;1.17;;;16.10;45.30;;;;;;5004593;27;45505;-61
2024/01/30 02:34:38;;;;;;;0.85;0.85;;;16.10;45.30;;;;;;5004138;28;45523;-61
2024/01/30 02:37:05;;;;;;;1.13;1.05;;;16.10;45.30;;;;;;5004218;27;45237;-61
2024/01/30 02:39:33;;;;;;;2.08;1.05;;;16.00;45.30;;;;;;5004273;27;45309;-61
2024/01/30 02:42:00;;;;;;;1.10;1.00;;;16.00;45.90;;;;;;5004364;28;45434;-61
2024/01/30 02:44:27;;;;;;;1.27;1.17;;;16.00;45.30;;;;;;5004139;27;45458;-60
2024/01/30 02:46:55;;;;;;;0.90;0.90;;;16.00;45.30;;;;;;5003987;28;45249;-62
2024/01/30 02:49:21;;;;;;;1.50;1.08;;;16.00;45.40;;;;;;5004075;27;45341;-62
2024/01/30 02:51:48;;;;;;;1.13;1.05;;;16.00;45.30;;;;;;5004286;27;45422;-63
2024/01/30 02:54:15;;;;;;;1.20;1.10;;;16.00;45.40;;;;;;5012219;27;45506;-60
2024/01/30 02:56:43;;;;;;;1.40;1.27;;;16.00;45.40;;;;;;5023822;28;45336;-61
2024/01/30 02:59:10;;;;;;;1.30;1.20;;;16.00;45.40;;;;;;5023853;28;45303;-61
2024/01/30 03:01:43;;;;;;;1.35;1.10;;;15.90;45.40;;;;;;5024119;28;45497;-61
2024/01/30 03:04:10;;;;;;;1.13;0.90;;;15.90;45.40;;;;;;5015297;28;46980;-60
2024/01/30 03:06:37;;;;;;;1.23;1.13;;;15.90;45.40;;;;;;5003976;27;45291;-60
2024/01/30 03:09:04;;;;;;;2.08;1.05;;;15.90;45.30;;;;;;5003562;27;45408;-61
2024/01/30 03:11:31;;;;;;;5.57;1.42;;;15.90;45.40;;;;;;5003946;28;45505;-60
2024/01/30 03:13:59;;;;;;;1.30;1.20;;;15.90;45.30;;;;;;5003832;28;47671;-61
2024/01/30 03:16:26;;;;;;;1.08;0.98;;;15.90;45.40;;;;;;5003505;28;45332;-61
2024/01/30 03:18:53;;;;;;;0.85;0.85;;;15.90;45.40;;;;;;5003789;27;45408;-62
2024/01/30 03:21:20;;;;;;;1.00;0.80;;;15.90;45.40;;;;;;5003916;27;45438;-60
2024/01/30 03:23:47;;;;;;;1.05;0.95;;;15.80;45.30;;;;;;5003522;27;46346;-62
2024/01/30 03:26:15;;;;;;;1.50;1.13;;;15.80;45.30;;;;;;5003620;28;45388;-60
2024/01/30 03:28:42;;;;;;;1.23;0.90;;;15.80;45.30;;;;;;5003690;28;45386;-61
2024/01/30 03:31:10;;;;;;;1.55;1.08;;;15.80;45.30;;;;;;5003674;28;45315;-62
2024/01/30 03:33:37;;;;;;;1.15;1.02;;;15.80;45.30;;;;;;5003326;28;46672;-63
2024/01/30 03:36:05;;;;;;;0.95;0.95;;;15.80;45.40;;;;;;5003555;27;45293;-60
2024/01/30 03:38:33;;;;;;;1.30;1.10;;;15.70;45.40;;;;;;5003236;28;45379;-61
2024/01/30 03:41:00;;;;;;;1.30;1.20;;;15.80;45.40;;;;;;5004005;27;45474;-60
2024/01/30 03:43:27;;;;;;;1.00;0.88;;;15.70;45.40;;;;;;5003350;27;47004;-61
2024/01/30 03:45:53;;;;;;;1.98;0.90;;;15.70;45.40;;;;;;5003280;27;45428;-62
2024/01/30 03:48:22;;;;;;;1.02;1.02;;;15.70;45.40;;;;;;5003635;27;45354;-61
2024/01/30 03:50:49;;;;;;;0.75;0.75;;;15.70;45.40;;;;;;5003618;27;45458;-61
2024/01/30 03:53:15;;;;;;;1.42;1.00;;;15.70;45.50;;;;;;5003259;27;45435;-63
2024/01/30 03:55:42;;;;;;;1.45;1.20;;;15.70;45.50;;;;;;5023006;28;45345;-60
2024/01/30 03:58:09;;;;;;;0.93;0.82;;;15.70;45.50;;;;;;5023284;28;45245;-61
2024/01/30 04:00:36;;;;;;;1.20;1.10;;;15.70;45.50;;;;;;5023174;28;45311;-61
2024/01/30 04:03:03;;;;;;;1.38;1.20;;;15.70;45.40;;;;;;5022843;28;46643;-61
2024/01/30 04:05:31;;;;;;;1.48;1.00;;;15.60;45.40;;;;;;5003731;28;45336;-61
2024/01/30 04:07:58;;;;;;;1.45;1.00;;;15.60;45.30;;;;;;5003042;27;45423;-61
2024/01/30 04:10:25;;;;;;;1.00;0.90;;;15.60;45.40;;;;;;5003007;28;45439;-60
2024/01/30 04:12:53;;;;;;;1.17;1.08;;;15.70;45.50;;;;;;5003022;27;47388;-61
2024/01/30 04:15:20;;;;;;;0.90;0.90;;;15.70;45.40;;;;;;5003025;27;46263;-61
2024/01/30 04:17:47;;;;;;;1.20;1.02;;;15.70;45.40;;;;;;5003155;27;45438;-61
2024/01/30 04:20:15;;;;;;;1.42;1.17;;;15.70;45.30;;;;;;5003121;27;45566;-61
2024/01/30 04:22:44;;;;;;;1.35;1.13;;;15.80;45.30;;;;;;5002939;27;46615;-61
2024/01/30 04:25:11;;;;;;;1.13;0.98;;;15.90;45.10;;;;;;5002929;27;45392;-61
2024/01/30 04:27:38;;;;;;;1.08;0.95;;;16.00;45.00;;;;;;5002896;28;45363;-61
2024/01/30 04:30:05;;;;;;;1.13;1.02;;;16.10;44.80;;;;;;5002949;27;45262;-61
2024/01/30 04:32:33;;;;;;;0.77;0.77;;;16.20;44.70;;;;;;5002795;27;46116;-61
2024/01/30 04:34:59;;;;;;;1.73;1.30;;;16.30;44.50;;;;;;5002827;27;45313;-61
2024/01/30 04:37:26;;;;;;;0.80;0.80;;;16.40;44.40;;;;;;5002956;27;45361;-61
2024/01/30 04:39:54;;;;;;;1.10;1.00;;;16.50;44.20;;;;;;5002847;27;45340;-61
2024/01/30 04:42:21;;;;;;;1.05;1.00;;;16.50;44.00;;;;;;5002477;27;46883;-61
2024/01/30 04:44:48;;;;;;;1.48;0.82;;;16.60;43.80;;;;;;5002592;28;45252;-62
2024/01/30 04:47:15;;;;;;;0.98;0.90;;;16.70;43.70;;;;;;5002711;27;45518;-61
2024/01/30 04:49:41;;;;;;;1.20;1.10;;;16.80;43.50;;;;;;5002723;27;45694;-61
2024/01/30 04:52:08;;;;;;;1.38;0.85;;;16.90;43.40;;;;;;5004826;27;45433;-61
2024/01/30 04:54:35;;;;;;;1.10;1.00;;;17.00;43.30;;;;;;5016256;27;45340;-60
2024/01/30 04:57:05;;;;;;;1.40;1.27;;;17.00;43.10;;;;;;5025208;28;45283;-61
2024/01/30 04:59:32;;;;;;;1.02;1.02;;;17.10;43.00;;;;;;5025332;28;45485;-62
2024/01/30 05:01:59;;;;;;;1.00;1.00;;;17.20;43.00;;;;;;5025069;28;47300;-61
2024/01/30 05:04:25;;;;;;;1.00;1.00;;;17.20;42.80;;;;;;5014683;28;45405;-62
2024/01/30 05:06:52;;;;;;;0.90;0.90;;;17.30;42.70;;;;;;5005734;27;45114;-61
2024/01/30 05:09:20;;;;;;;0.88;0.85;;;17.40;42.60;;;;;;5005139;27;45418;-62
2024/01/30 05:11:46;;;;;;;0.93;0.82;;;17.40;42.50;;;;;;5005280;27;45355;-61
2024/01/30 05:14:16;;;;;;;0.70;0.70;;;17.50;42.50;;;;;;5005328;27;45399;-61
2024/01/30 05:16:46;;;;;;;0.70;0.70;;;17.50;42.40;;;;;;5005198;27;45233;-61
2024/01/30 05:19:13;;;;;;;1.63;1.20;;;17.50;42.30;;;;;;5005523;28;45550;-62
2024/01/30 05:21:40;;;;;;;1.20;1.10;;;17.60;42.20;;;;;;5005078;27;45468;-62
2024/01/30 05:24:09;;;;;;;0.80;0.80;;;17.70;42.20;;;;;;5005170;27;45287;-61
2024/01/30 05:26:36;;;;;;;0.80;0.80;;;17.70;42.10;;;;;;5005197;28;45240;-60
2024/01/30 05:29:03;;;;;;;1.00;0.90;;;17.70;42.10;;;;;;5005276;27;45454;-61
2024/01/30 05:31:31;;;;;;;0.70;0.70;;;17.80;42.00;;;;;;5004877;27;46371;-61
2024/01/30 05:33:58;;;;;;;1.65;1.00;;;17.80;41.90;;;;;;5004984;28;45255;-61
2024/01/30 05:36:25;;;;;;;0.80;0.80;;;17.80;41.80;;;;;;5005011;27;45273;-61
2024/01/30 05:38:52;;;;;;;0.75;0.75;;;17.90;41.80;;;;;;5005268;27;45537;-62
2024/01/30 05:41:18;;;;;;;0.90;0.90;;;17.90;41.70;;;;;;5004730;27;45401;-61
2024/01/30 05:43:45;;;;;;;1.40;0.93;;;17.90;41.60;;;;;;5005002;27;45312;-61
2024/01/30 05:46:12;;;;;;;0.80;0.80;;;18.00;41.70;;;;;;5005093;27;45278;-61
2024/01/30 05:48:40;;;;;;;1.25;1.05;;;18.00;41.60;;;;;;5005110;28;45302;-61
2024/01/30 05:51:08;;;;;;;0.73;0.73;;;18.00;41.60;;;;;;5004593;27;46655;-63
2024/01/30 05:53:35;;;;;;;1.17;0.70;;;18.00;41.50;;;;;;5007374;27;45313;-61
2024/01/30 05:56:02;;;;;;;0.70;0.70;;;18.10;41.50;;;;;;5024712;28;45334;-61
2024/01/30 05:58:30;;;;;;;0.82;0.82;;;18.10;41.40;;;;;;5024752;27;45330;-61
2024/01/30 06:00:57;;;;;;;0.70;0.70;;;18.10;41.40;;;;;;5024594;27;45640;-61
2024/01/30 06:03:24;;;;;;;0.88;0.88;;;18.10;41.40;;;;;;5022371;28;45441;-60
2024/01/30 06:05:52;;;;;;;0.85;0.82;;;18.10;41.30;;;;;;5004765;27;45312;-61
2024/01/30 06:08:19;;;;;;;1.20;1.10;;;18.20;41.30;;;;;;5004561;27;45353;-60
2024/01/30 06:10:47;;;;;;;1.10;1.00;;;18.20;41.30;;;;;;5005066;28;45437;-61
2024/01/30 06:13:13;;;;;;;0.80;0.80;;;18.20;41.20;;;;;;5004506;27;45295;-60
2024/01/30 06:15:40;;;;;;;1.23;1.13;;;18.20;41.80;;;;;;5005233;28;45374;-61
2024/01/30 06:18:07;;;;;;;1.27;1.00;;;18.30;41.20;;;;;;5004714;27;45263;-60
2024/01/30 06:20:33;;;;;;;0.88;0.80;;;18.30;41.20;;;;;;5004361;27;45259;-61
2024/01/30 06:23:02;;;;;;;0.88;0.88;;;18.30;41.20;;;;;;5004326;28;45351;-60
2024/01/30 06:25:28;;;;;;;1.00;0.90;;;18.30;41.10;;;;;;5004563;28;45261;-60
2024/01/30 06:27:55;;;;;;;0.70;0.70;;;18.40;41.10;;;;;;5004606;27;45536;-61
2024/01/30 06:30:22;;;;;;;1.00;1.00;;;18.30;41.60;;;;;;5004049;28;45296;-60
2024/01/30 06:32:49;;;;;;;1.08;0.98;;;18.30;41.00;;;;;;5004343;28;45203;-62
2024/01/30 06:35:17;;;;;;;0.98;0.90;;;18.40;41.00;;;;;;5004422;27;45342;-60
2024/01/30 06:37:44;;;;;;;0.80;0.80;;;18.40;41.00;;;;;;5004470;27;45594;-60
2024/01/30 06:40:13;;;;;;;0.85;0.73;;;18.40;40.90;;;;;;5003909;27;45312;-60
2024/01/30 06:42:40;;;;;;;1.13;1.02;;;18.40;40.90;;;;;;5004279;28;45395;-61
2024/01/30 06:45:08;;;;;;;1.75;0.88;;;18.40;40.80;;;;;;5004236;27;45298;-60
2024/01/30 06:47:35;;;;;;;1.00;0.90;;;18.40;40.80;;;;;;5004380;28;45643;-60
2024/01/30 06:50:03;;;;;;;0.80;0.80;;;18.50;40.90;;;;;;5003881;27;46330;-61
2024/01/30 06:52:30;;;;;;;0.90;0.90;;;18.50;40.90;;;;;;5003915;27;45546;-62
2024/01/30 06:54:56;;;;;;;1.00;0.93;;;18.50;40.80;;;;;;5017915;27;45265;-61
2024/01/30 06:57:25;;;;;;;0.95;0.90;;;18.50;40.80;;;;;;5023898;28;45528;-60
2024/01/30 06:59:52;;;;;;;1.40;1.10;;;18.50;40.80;;;;;;5023588;27;45646;-61
2024/01/30 07:02:19;;;;;;;0.90;0.90;;;18.50;40.80;;;;;;5023748;28;45204;-60
2024/01/30 07:04:46;;;;;;;0.80;0.80;;;18.50;40.80;;;;;;5010138;28;45492;-59
2024/01/30 07:07:14;;;;;;;1.38;0.90;;;18.60;40.70;;;;;;5001462;28;45507;-60
2024/01/30 07:09:41;;;;;;;1.08;0.98;;;18.60;40.80;;;;;;5003497;28;46654;-61
2024/01/30 07:12:08;;;;;;;1.20;1.08;;;18.60;40.80;;;;;;5003791;28;45318;-60
2024/01/30 07:14:37;;;;;;;1.20;1.05;;;18.60;40.80;;;;;;5003225;28;45290;-60
2024/01/30 07:17:03;;;;;;;1.17;1.00;;;18.60;40.80;;;;;;5020634;28;45394;-61
2024/01/30 07:19:30;;;;;;;2.42;1.00;;;18.60;40.80;;;;;;5023082;27;46362;-61
2024/01/30 07:21:57;;;;;;;2.75;1.02;;;18.60;40.80;;;;;;5023338;27;45339;-60
2024/01/30 07:24:24;;;;;;;1.00;1.00;;;18.70;40.80;;;;;;5023464;27;45280;-61
2024/01/30 07:26:51;;;;;;;1.13;0.95;;;18.70;40.80;;;;;;5023205;27;45247;-61
2024/01/30 07:29:17;;;;;;;1.15;1.05;;;18.70;40.80;;;;;;5022561;27;46364;-61
2024/01/30 07:31:46;;;;;;;1.23;1.00;;;18.70;40.70;;;;;;5022494;27;45695;-60
2024/01/30 07:34:13;;;;;;;1.30;0.95;;;18.70;40.70;;;;;;5023046;28;45264;-60
2024/01/30 07:36:39;;;;;;;1.25;1.10;;;18.70;40.70;;;;;;5022494;28;45411;-61
2024/01/30 07:39:06;;;;;;;1.00;0.93;;;18.70;40.70;;;;;;5022584;27;46716;-61
2024/01/30 07:41:33;;;;;;;1.60;1.15;;;18.70;40.60;;;;;;5023064;27;45371;-62
2024/01/30 07:44:00;;;;;;;1.23;1.00;;;18.80;40.70;;;;;;5023174;27;45347;-61
2024/01/30 07:46:27;;;;;;;1.38;1.08;;;18.80;40.60;;;;;;5023078;27;45315;-60
2024/01/30 07:48:55;;;;;;;1.45;1.27;;;18.80;40.60;;;;;;5022420;27;47282;-61
2024/01/30 07:51:22;;;;;;;1.15;1.05;;;18.80;40.60;;;;;;5023049;28;45329;-60
2024/01/30 07:53:49;;;;;;;1.40;1.23;;;18.80;40.60;;;;;;5022428;27;45331;-62
2024/01/30 07:56:16;;;;;;;1.00;0.93;;;18.80;40.60;;;;;;5022690;27;45355;-61
2024/01/30 07:58:43;;;;;;;1.83;0.95;;;18.90;40.70;;;;;;5021942;27;45467;-61
2024/01/30 08:01:10;;;;;;;1.02;1.00;;;18.90;40.70;;;;;;5021131;28;45505;-60
2024/01/30 08:03:36;;;;;;;0.93;0.90;;;18.90;40.60;;;;;;5021928;27;45414;-60
2024/01/30 08:06:06;;;;;;;1.23;1.13;;;18.90;40.60;;;;;;5022314;27;45413;-60
2024/01/30 08:08:33;;;;;;;1.58;1.30;;;18.90;40.60;;;;;;5022310;28;46255;-61
2024/01/30 08:11:00;;;;;;;1.40;1.30;;;18.90;40.50;;;;;;5009098;27;45276;-60
2024/01/30 08:13:27;;;;;;;2.25;1.20;;;18.90;40.60;;;;;;5020720;28;45387;-61
2024/01/30 08:15:53;;;;;;;1.63;1.42;;;19.00;40.60;;;;;;5021588;27;45628;-61
2024/01/30 08:18:20;;;;;;;1.80;1.50;;;19.00;40.50;;;;;;5021558;27;47313;-62
2024/01/30 08:20:47;;;;;;;1.63;1.33;;;19.00;40.50;;;;;;5021608;27;45329;-61
2024/01/30 08:23:15;;;;;;;1.50;1.40;;;19.00;40.50;;;;;;5022253;28;45328;-60
2024/01/30 08:25:42;;;;;;;2.13;1.83;;;19.00;40.50;;;;;;5020512;27;45455;-61
2024/01/30 08:28:09;;;;;;;2.35;1.70;;;19.10;40.60;;;;;;5021442;27;46960;-61
2024/01/30 08:30:36;;;;;;;2.15;1.23;;;19.00;40.50;;;;;;5020879;28;45465;-61
2024/01/30 08:33:03;;;;;;;1.88;1.70;;;19.00;40.50;;;;;;5022285;27;45394;-62
2024/01/30 08:35:33;;;;;;;2.38;1.55;;;19.00;40.60;;;;;;5022187;28;45271;-61
2024/01/30 08:38:00;;;;;;;2.22;1.60;;;19.00;40.60;;;;;;5021148;28;46342;-61
2024/01/30 08:40:27;;;;;;;1.63;1.45;;;19.10;41.10;;;;;;5021489;27;45343;-60
2024/01/30 08:42:54;;;;;;;2.70;1.65;;;19.10;40.70;;;;;;5022141;28;45397;-61
2024/01/30 08:45:20;;;;;;;1.65;1.55;;;19.10;40.70;;;;;;5021965;27;45446;-62
2024/01/30 08:47:47;;;;;;;2.88;1.55;;;19.10;40.70;;;;;;5021568;27;45509;-61
2024/01/30 08:50:14;;;;;;;1.98;1.67;;;19.10;40.70;;;;;;5021987;27;45429;-60
2024/01/30 08:52:41;;;;;;;1.83;1.50;;;19.10;40.60;;;;;;5021235;28;45482;-62
2024/01/30 08:55:09;;;;;;;2.47;1.85;;;19.20;40.60;;;;;;5017837;28;45410;-61
2024/01/30 08:57:37;;;;;;;1.90;1.70;;;19.20;40.70;;;;;;5018463;28;47843;-60
2024/01/30 09:00:06;;;;;;;2.08;1.63;;;19.20;40.60;;;;;;5021313;27;45364;-64
2024/01/30 09:02:33;;;;;;;2.13;1.58;;;19.20;40.30;;;;;;5018877;28;45266;-61
2024/01/30 09:05:00;;;;;;;2.90;1.67;;;19.20;39.80;;;;;;5021134;28;45257;-62
2024/01/30 09:07:26;;;;;;;2.60;1.90;;;19.20;39.40;;;;;;5021406;27;46425;-61
2024/01/30 09:09:53;;;;;;;5.13;1.98;;;19.20;39.20;;;;;;5021218;27;45371;-61
2024/01/30 09:12:20;;;;;;;2.33;1.75;;;19.20;39.30;;;;;;5021378;27;45627;-61
2024/01/30 09:14:48;;;;;;;4.22;1.73;;;19.20;39.30;;;;;;5021316;28;45637;-61
2024/01/30 09:17:15;;;;;;;1.67;1.58;;;19.20;39.40;;;;;;5018061;28;45268;-61
2024/01/30 09:19:42;;;;;;;5.63;1.83;;;19.20;39.40;;;;;;5020707;27;45329;-61
2024/01/30 09:22:08;;;;;;;2.50;1.70;;;19.20;39.50;;;;;;5021321;27;45354;-61
2024/01/30 09:24:35;;;;;;;2.30;2.00;;;19.20;39.60;;;;;;5021099;27;45449;-62
2024/01/30 09:27:02;;;;;;;4.18;1.90;;;19.30;39.60;;;;;;5020713;28;45319;-61
2024/01/30 09:29:29;;;;;;;4.18;1.92;;;19.30;39.70;;;;;;5020911;27;45269;-61
2024/01/30 09:31:57;;;;;;;2.10;1.75;;;19.30;39.80;;;;;;5020095;28;45505;-62
2024/01/30 09:34:24;;;;;;;3.28;2.00;;;19.30;39.80;;;;;;5021706;27;45510;-62
2024/01/30 09:36:51;;;;;;;4.95;2.00;;;19.30;39.90;;;;;;5021943;27;46683;-61
2024/01/30 09:39:19;;;;;;;1.95;1.52;;;19.30;40.60;;;;;;5023853;27;45346;-61
2024/01/30 09:41:49;;;;;;;5.30;1.90;;;19.30;40.00;;;;;;5024086;28;45398;-61
2024/01/30 09:44:16;;;;;;;5.03;1.92;;;19.30;40.10;;;;;;5024761;27;45303;-62
2024/01/30 09:46:43;;;;;;;2.50;2.10;;;19.30;40.10;;;;;;5023186;28;46314;-61
2024/01/30 09:49:11;;;;;;;5.13;1.90;;;19.40;40.20;;;;;;5023040;27;45494;-61
2024/01/30 09:51:38;;;;;;;3.45;1.70;;;19.40;40.30;;;;;;5023708;28;45380;-61
2024/01/30 09:54:05;;;;;;;3.15;1.77;;;19.40;40.40;;;;;;5019900;28;45387;-61
2024/01/30 09:56:32;;;;;;;3.80;1.65;;;19.40;40.40;;;;;;5023830;27;45442;-64
2024/01/30 09:58:59;;;;;;;2.00;1.80;;;19.40;40.40;;;;;;5023865;28;45311;-61
2024/01/30 10:01:26;;;;;;;3.60;1.60;;;19.40;40.50;;;;;;5024106;27;45370;-60
2024/01/30 10:03:53;;;;;;;3.13;1.90;;;19.50;40.50;;;;;;5018669;27;45367;-61
2024/01/30 10:06:22;;;;;;;5.03;1.90;;;19.50;40.50;;;;;;5004641;28;45426;-61
2024/01/30 10:08:49;;;;;;;4.07;1.95;;;19.50;40.50;;;;;;5023065;27;45342;-64
2024/01/30 10:11:16;;;;;;;2.38;2.10;;;19.50;40.50;;;;;;5068179;27;45310;-60
2024/01/30 10:13:42;;;;;;;2.15;1.67;;;19.50;40.50;;;;;;5040599;27;45595;-61
2024/01/30 10:16:09;;;;;;;2.45;2.25;;;19.50;40.50;;;;;;5023554;28;45530;-61
2024/01/30 10:18:36;;;;;;;3.75;2.25;;;19.50;40.40;;;;;;5060464;27;45369;-61
2024/01/30 10:21:03;;;;;;;1.90;1.80;;;19.60;40.40;;;;;;5122376;27;45333;-61
2024/01/30 10:23:31;;;;;;;3.85;2.00;;;19.60;40.40;;;;;;5100323;27;45319;-62
2024/01/30 10:25:58;;;;;;;5.75;2.47;;;19.60;40.50;;;;;;5023343;27;46403;-60
2024/01/30 10:28:29;;;;;;;4.03;2.13;;;19.60;40.40;;;;;;5023043;28;45465;-60
2024/01/30 10:31:00;;;;;;;2.95;1.77;;;19.60;40.40;;;;;;5022972;27;45433;-63
2024/01/30 10:33:28;;;;;;;3.33;1.70;;;19.70;40.40;;;;;;5020670;28;45409;-60
2024/01/30 10:35:56;;;;;;;8.13;2.08;;;19.70;40.30;;;;;;5023784;28;45260;-62
2024/01/30 10:38:23;;;;;;;4.57;2.20;;;19.70;40.30;;;;;;5024451;27;45443;-60
2024/01/30 10:40:51;;;;;;;4.65;2.75;;;19.70;40.20;;;;;;5024176;28;45476;-61
2024/01/30 10:43:18;;;;;;;4.85;2.90;;;19.80;40.30;;;;;;5076000;27;45447;-62
2024/01/30 10:45:44;;;;;;;5.13;2.40;;;19.80;40.90;;;;;;5023757;28;46511;-60
2024/01/30 10:48:11;;;;;;;4.10;2.92;;;19.80;40.20;;;;;;5023286;27;45371;-61
2024/01/30 10:50:38;;;;;;;3.58;2.75;;;19.90;40.80;;;;;;5022957;28;45395;-62
2024/01/30 10:53:05;;;;;;;6.38;2.83;;;19.90;40.20;;;;;;5022974;27;45496;-63
2024/01/30 10:55:32;;;;;;;4.50;2.70;;;19.90;40.10;;;;;;5023115;27;46339;-61
2024/01/30 10:58:00;;;;;;;5.38;2.60;;;19.90;40.10;;;;;;5023381;27;45430;-62
2024/01/30 11:00:28;;;;;;;4.60;2.95;;;19.90;40.10;;;;;;5023065;28;45413;-60
2024/01/30 11:02:55;;;;;;;5.70;3.13;;;19.90;40.70;;;;;;5024538;27;45359;-60
2024/01/30 11:05:25;;;;;;;7.25;3.13;;;20.00;40.20;;;;;;5023014;28;46624;-63
2024/01/30 11:07:51;;;;;;;6.00;3.13;;;20.00;40.10;;;;;;5024292;27;45344;-60
2024/01/30 11:10:18;;;;;;;4.10;2.72;;;20.00;40.10;;;;;;5020434;27;45324;-62
2024/01/30 11:12:47;;;;;;;8.23;3.60;;;20.00;40.10;;;;;;5005220;28;45434;-61
2024/01/30 11:15:16;;;;;;;4.70;3.10;;;20.10;40.00;;;;;;5016047;28;46297;-61
2024/01/30 11:17:43;;;;;;;6.38;2.78;;;20.20;39.80;;;;;;5024937;28;45301;-60
2024/01/30 11:20:12;;;;;;;11.70;3.55;;;20.30;39.70;;;;;;5023147;28;45402;-62
2024/01/30 11:22:41;;;;;;;7.70;2.83;;;20.30;39.60;;;;;;5023195;28;45648;-62
2024/01/30 11:25:10;;;;;;;6.25;3.00;;;20.20;39.60;;;;;;5027442;27;47268;-60
2024/01/30 11:27:40;;;;;;;4.72;2.67;;;20.20;39.70;;;;;;5028054;28;45438;-62
2024/01/30 11:30:09;;;;;;;4.93;2.88;;;20.20;39.80;;;;;;5026090;27;45382;-60
2024/01/30 11:32:37;;;;;;;4.72;2.75;;;20.20;39.70;;;;;;5025095;28;45441;-61
2024/01/30 11:35:06;;;;;;;8.63;3.10;;;20.20;39.70;;;;;;5023902;27;46578;-61
2024/01/30 11:37:33;;;;;;;5.75;2.67;;;20.20;39.80;;;;;;5023108;27;45347;-61
2024/01/30 11:40:00;;;;;;;4.90;2.70;;;20.20;39.80;;;;;;5022938;27;45494;-62
2024/01/30 11:42:27;;;;;;;4.45;3.00;;;20.20;39.70;;;;;;5022324;27;45348;-63
2024/01/30 11:44:53;;;;;;;5.20;2.50;;;20.20;39.50;;;;;;5036124;27;45544;-62
2024/01/30 11:47:20;;;;;;;3.05;2.30;;;20.30;39.30;;;;;;5053750;27;45388;-61
2024/01/30 11:49:48;;;;;;;7.38;2.72;;;20.30;39.20;;;;;;5045091;27;45300;-62
2024/01/30 11:52:15;;;;;;;6.07;2.88;;;20.30;39.30;;;;;;5070520;27;45389;-61
2024/01/30 11:54:42;;;;;;;4.28;2.65;;;20.30;39.30;;;;;;5065048;27;46399;-61
2024/01/30 11:57:14;;;;;;;4.40;2.47;;;20.30;39.50;;;;;;5023010;28;45361;-61
2024/01/30 11:59:41;;;;;;;3.63;2.33;;;20.30;39.70;;;;;;5022743;28;45373;-61
2024/01/30 12:02:08;;;;;;;3.92;2.20;;;20.30;39.70;;;;;;5091163;27;45425;-61
2024/01/30 12:04:34;;;;;;;6.05;2.65;;;20.30;39.70;;;;;;5058050;27;45561;-61
2024/01/30 12:07:02;;;;;;;5.97;2.72;;;20.30;39.80;;;;;;5022864;28;45290;-61
2024/01/30 12:09:29;;;;;;;3.22;2.20;;;20.30;39.80;;;;;;5022743;28;45334;-62
2024/01/30 12:11:56;;;;;;;4.07;2.67;;;20.30;39.80;;;;;;5023247;28;45380;-61
2024/01/30 12:14:25;;;;;;;5.60;2.40;;;20.40;39.70;;;;;;5023122;28;46181;-61
2024/01/30 12:16:51;;;;;;;5.63;2.92;;;20.40;39.70;;;;;;5022750;27;45324;-61
2024/01/30 12:19:24;;;;;;;5.55;2.40;;;20.40;39.80;;;;;;5022715;28;45252;-61
2024/01/30 12:21:56;;;;;;;4.13;2.30;;;20.40;39.80;;;;;;5022971;28;45368;-62
2024/01/30 12:24:24;;;;;;;3.85;2.17;;;20.30;39.80;;;;;;5022754;27;47494;-62
2024/01/30 12:26:51;;;;;;;5.38;2.63;;;20.30;39.90;;;;;;5022671;28;45279;-61
2024/01/30 12:29:18;;;;;;;4.68;2.63;;;20.30;40.00;;;;;;5022920;28;45380;-59
2024/01/30 12:31:46;;;;;;;5.63;2.50;;;20.30;40.10;;;;;;5023110;28;45308;-60
2024/01/30 12:34:15;;;;;;;5.72;2.85;;;20.30;40.10;;;;;;5016648;27;46802;-60
2024/01/30 12:36:42;;;;;;;3.53;2.42;;;20.40;40.20;;;;;;5003178;27;45295;-60
2024/01/30 12:39:12;;;;;;;5.00;2.45;;;20.40;40.20;;;;;;5002922;28;45446;-60
2024/01/30 12:41:41;;;;;;;4.38;2.78;;;20.40;40.20;;;;;;5004927;28;45381;-60
2024/01/30 12:44:08;;;;;;;5.18;2.25;;;20.30;40.30;;;;;;5001229;28;46390;-61
2024/01/30 12:46:35;;;;;;;3.78;2.30;;;20.30;40.30;;;;;;5054680;27;45540;-61